Time;durP1;ratioP1;P1;durP2;ratioP2;P2;SDS_P1;SDS_P2;PMS_P1;PMS_P2;Temp;Humidity;BMP_temperature;BMP_pressure;BME280_temperature;BME280_humidity;BME280_pressure;Samples;Min_cycle;Max_cycle;Signal;HPM_P1;HPM_P2
2024/04/18 00:02:08;;;;;;;3.70;2.28;;;26.80;99.90;;;;;;5416272;21;20007;-49
2024/04/18 00:04:34;;;;;;;5.82;3.22;;;26.70;99.90;;;;;;5413564;26;20341;-49
2024/04/18 00:07:01;;;;;;;5.72;2.75;;;26.70;99.90;;;;;;5415554;26;19995;-49
2024/04/18 00:09:27;;;;;;;7.97;2.72;;;26.70;99.90;;;;;;5415558;26;19991;-49
2024/04/18 00:11:53;;;;;;;6.85;2.90;;;26.70;99.90;;;;;;5415274;26;20011;-49
2024/04/18 00:14:18;;;;;;;6.60;2.92;;;26.70;99.90;;;;;;5415172;26;20073;-49
2024/04/18 00:16:44;;;;;;;10.48;2.97;;;26.70;99.90;;;;;;5417483;26;20007;-49
2024/04/18 00:19:10;;;;;;;4.85;2.72;;;26.70;99.90;;;;;;5418943;26;20007;-50
2024/04/18 00:21:36;;;;;;;6.03;2.50;;;26.70;99.90;;;;;;5418749;26;20007;-49
2024/04/18 00:24:01;;;;;;;6.95;3.13;;;26.70;99.90;;;;;;5418638;26;19999;-50
2024/04/18 00:26:27;;;;;;;6.97;2.67;;;26.70;99.90;;;;;;5416936;26;19995;-50
2024/04/18 00:28:53;;;;;;;4.60;2.60;;;26.70;99.90;;;;;;5417096;26;20003;-49
2024/04/18 00:31:19;;;;;;;4.47;2.80;;;26.70;99.90;;;;;;5418648;26;19995;-50
2024/04/18 00:33:47;;;;;;;4.55;2.58;;;26.70;99.90;;;;;;5418407;26;20060;-50
2024/04/18 00:36:12;;;;;;;6.03;3.10;;;26.70;99.90;;;;;;5418698;26;19996;-49
2024/04/18 00:38:38;;;;;;;6.05;2.65;;;26.60;99.90;;;;;;5418606;26;20006;-49
2024/04/18 00:41:05;;;;;;;5.75;2.70;;;26.60;99.90;;;;;;5418591;26;19992;-49
2024/04/18 00:43:30;;;;;;;8.38;2.60;;;26.60;99.90;;;;;;5416662;26;20037;-49
2024/04/18 00:45:57;;;;;;;6.82;2.67;;;26.60;99.90;;;;;;5418374;26;20007;-50
2024/04/18 00:48:25;;;;;;;6.03;2.30;;;26.60;99.90;;;;;;5418395;26;20064;-49
2024/04/18 00:50:55;;;;;;;4.30;2.47;;;26.60;99.90;;;;;;5418386;26;20014;-50
2024/04/18 00:53:24;;;;;;;6.47;3.25;;;26.60;99.90;;;;;;5418662;26;19992;-49
2024/04/18 00:55:52;;;;;;;4.78;2.60;;;26.60;99.90;;;;;;5416829;26;19991;-50
2024/04/18 00:58:18;;;;;;;5.65;2.35;;;26.60;99.90;;;;;;5418493;26;19996;-49
2024/04/18 01:00:46;;;;;;;7.65;2.75;;;26.60;99.90;;;;;;5418950;26;20401;-49
2024/04/18 01:03:12;;;;;;;4.35;2.50;;;26.60;99.90;;;;;;5418714;26;19995;-49
2024/04/18 01:05:38;;;;;;;6.18;3.00;;;26.50;99.90;;;;;;5415482;26;19991;-49
2024/04/18 01:08:05;;;;;;;5.20;2.70;;;26.50;99.90;;;;;;5414010;26;20423;-49
2024/04/18 01:10:30;;;;;;;5.97;2.83;;;26.50;99.90;;;;;;5418327;26;20226;-49
2024/04/18 01:12:57;;;;;;;6.40;2.83;;;26.50;99.90;;;;;;5416976;26;20071;-49
2024/04/18 01:15:28;;;;;;;3.90;2.35;;;26.50;99.90;;;;;;5418268;26;20019;-50
2024/04/18 01:17:55;;;;;;;7.15;2.60;;;26.50;99.90;;;;;;5416286;26;20348;-49
2024/04/18 01:20:22;;;;;;;5.65;2.30;;;26.50;99.90;;;;;;5418014;26;20249;-48
2024/04/18 01:22:48;;;;;;;;;;;26.50;99.90;;;;;;5416626;26;19999;-49
2024/04/18 01:25:14;;;;;;;9.25;2.45;;;26.50;99.90;;;;;;5418000;26;19929;-49
2024/04/18 01:27:39;;;;;;;4.35;2.65;;;26.50;99.90;;;;;;5405831;26;20000;-49
2024/04/18 01:30:06;;;;;;;4.90;2.50;;;26.50;99.90;;;;;;5397655;26;20008;-49
2024/04/18 01:32:35;;;;;;;5.15;2.65;;;26.50;99.90;;;;;;5413930;26;20016;-49
2024/04/18 01:35:02;;;;;;;4.72;2.47;;;26.40;99.90;;;;;;5417595;26;20011;-50
2024/04/18 01:37:28;;;;;;;6.33;2.40;;;26.40;99.90;;;;;;5417427;26;20011;-50
2024/04/18 01:39:54;;;;;;;6.68;2.85;;;26.40;99.90;;;;;;5396708;26;20230;-49
2024/04/18 01:42:19;;;;;;;4.38;2.45;;;26.40;99.90;;;;;;5412707;26;20027;-49
2024/04/18 01:44:46;;;;;;;5.95;2.85;;;26.40;99.90;;;;;;5414177;26;20015;-50
2024/04/18 01:47:13;;;;;;;4.25;2.33;;;26.40;99.90;;;;;;5414362;26;20321;-50
2024/04/18 01:49:39;;;;;;;5.60;2.40;;;26.40;99.90;;;;;;5414963;26;20002;-51
2024/04/18 01:52:07;;;;;;;7.35;2.42;;;26.40;99.90;;;;;;5414693;26;20440;-49
2024/04/18 01:54:33;;;;;;;6.13;2.58;;;26.40;99.90;;;;;;5414675;26;19996;-49
2024/04/18 01:57:00;;;;;;;4.03;1.92;;;26.40;99.90;;;;;;5416366;26;20003;-49
2024/04/18 01:59:26;;;;;;;6.63;2.17;;;26.40;99.90;;;;;;5417807;26;20000;-50
2024/04/18 02:01:54;;;;;;;5.45;2.22;;;26.30;99.90;;;;;;5417630;26;19999;-49
2024/04/18 02:04:20;;;;;;;7.32;3.00;;;26.30;99.90;;;;;;5417394;26;20000;-49
2024/04/18 02:06:52;;;;;;;4.30;2.70;;;26.30;99.90;;;;;;5417387;26;20325;-50
2024/04/18 02:09:18;;;;;;;6.82;2.60;;;26.30;99.90;;;;;;5417291;26;20072;-50
2024/04/18 02:11:44;;;;;;;4.78;2.95;;;26.30;99.90;;;;;;5417397;26;19999;-49
2024/04/18 02:14:13;;;;;;;7.78;2.55;;;26.30;99.90;;;;;;5415742;26;20006;-49
2024/04/18 02:16:39;;;;;;;6.75;3.10;;;26.30;99.90;;;;;;5417384;26;19999;-48
2024/04/18 02:19:05;;;;;;;6.85;3.38;;;26.30;99.90;;;;;;5417184;26;20437;-50
2024/04/18 02:21:30;;;;;;;5.07;3.28;;;26.30;99.90;;;;;;5417631;26;20003;-48
2024/04/18 02:23:56;;;;;;;7.47;3.53;;;26.30;99.90;;;;;;5417401;26;20068;-48
2024/04/18 02:26:22;;;;;;;8.05;3.58;;;26.30;99.90;;;;;;5417226;26;20006;-48
2024/04/18 02:28:48;;;;;;;7.22;3.83;;;26.20;99.90;;;;;;5417481;26;20000;-48
2024/04/18 02:31:13;;;;;;;8.85;4.57;;;26.20;99.90;;;;;;5416979;26;20004;-48
2024/04/18 02:33:39;;;;;;;7.60;4.45;;;26.20;99.90;;;;;;5417194;26;20007;-48
2024/04/18 02:36:05;;;;;;;7.90;4.10;;;26.20;99.90;;;;;;5417056;26;19995;-47
2024/04/18 02:38:31;;;;;;;7.97;4.18;;;26.20;99.90;;;;;;5416943;26;20328;-48
2024/04/18 02:41:15;;;;;;;7.57;4.47;;;26.20;99.90;;;;;;5417258;26;19995;-49
2024/04/18 02:43:41;;;;;;;9.13;4.70;;;26.10;99.90;;;;;;5416848;26;19996;-49
2024/04/18 02:46:07;;;;;;;8.07;4.80;;;26.10;99.90;;;;;;5416813;26;20027;-49
2024/04/18 02:48:33;;;;;;;9.25;4.65;;;26.20;99.90;;;;;;5417173;26;20000;-48
2024/04/18 02:50:58;;;;;;;8.88;5.20;;;26.20;99.90;;;;;;5416751;26;20367;-48
2024/04/18 02:53:24;;;;;;;11.88;5.72;;;26.10;99.90;;;;;;5416819;26;20424;-49
2024/04/18 02:55:50;;;;;;;8.32;4.55;;;26.10;99.90;;;;;;5416594;26;20007;-49
2024/04/18 02:58:16;;;;;;;9.40;4.78;;;26.10;99.90;;;;;;5416758;26;20011;-48
2024/04/18 03:00:41;;;;;;;9.18;5.82;;;26.10;99.90;;;;;;5426388;21;19988;-53
2024/04/18 03:03:07;;;;;;;9.02;5.18;;;26.10;99.90;;;;;;5381229;26;19996;-53
2024/04/18 03:05:33;;;;;;;9.27;5.03;;;26.10;99.90;;;;;;5381361;26;20069;-53
2024/04/18 03:07:59;;;;;;;10.10;5.60;;;26.10;99.90;;;;;;5380927;26;20023;-53
2024/04/18 03:10:25;;;;;;;11.43;5.03;;;26.10;99.90;;;;;;5380709;26;20004;-54
2024/04/18 03:12:54;;;;;;;8.90;4.95;;;26.10;99.90;;;;;;5380858;26;19996;-55
2024/04/18 03:15:21;;;;;;;10.13;5.38;;;26.10;99.90;;;;;;5381057;26;19996;-55
2024/04/18 03:17:53;;;;;;;7.53;4.88;;;26.00;99.90;;;;;;5380841;26;20008;-55
2024/04/18 03:20:20;;;;;;;9.10;5.50;;;26.00;99.90;;;;;;5380513;26;20000;-55
2024/04/18 03:22:46;;;;;;;8.88;4.60;;;26.00;99.90;;;;;;5380799;26;20007;-54
2024/04/18 03:25:12;;;;;;;7.13;4.38;;;26.00;99.90;;;;;;5381072;26;20004;-54
2024/04/18 03:27:37;;;;;;;6.97;4.35;;;26.00;99.90;;;;;;5380569;26;20011;-54
2024/04/18 03:30:04;;;;;;;9.18;5.15;;;26.00;99.90;;;;;;5380677;26;20011;-56
2024/04/18 03:32:29;;;;;;;8.68;4.43;;;25.90;99.90;;;;;;5380533;26;20437;-55
2024/04/18 03:34:55;;;;;;;6.72;4.32;;;26.00;99.90;;;;;;5380606;26;20007;-56
2024/04/18 03:37:21;;;;;;;5.93;3.83;;;26.00;99.90;;;;;;5380644;26;20343;-55
2024/04/18 03:39:47;;;;;;;7.00;4.03;;;25.90;99.90;;;;;;5380629;26;20037;-55
2024/04/18 03:42:13;;;;;;;6.30;4.10;;;25.90;99.90;;;;;;5380558;26;20546;-56
2024/04/18 03:44:40;;;;;;;7.43;4.05;;;25.90;99.90;;;;;;5380300;26;20337;-54
2024/04/18 03:47:07;;;;;;;7.30;4.25;;;25.90;99.90;;;;;;5380666;26;20010;-54
2024/04/18 03:49:32;;;;;;;8.40;4.22;;;25.90;99.90;;;;;;5380560;26;20000;-55
2024/04/18 03:51:58;;;;;;;6.05;4.05;;;25.90;99.90;;;;;;5382930;26;20463;-54
2024/04/18 03:54:24;;;;;;;8.77;3.97;;;25.90;99.90;;;;;;5383544;26;20000;-54
2024/04/18 03:56:50;;;;;;;8.48;3.45;;;25.90;99.90;;;;;;5383908;26;20393;-54
2024/04/18 03:59:15;;;;;;;6.50;3.45;;;25.90;99.90;;;;;;5383275;26;20007;-56
2024/04/18 04:01:41;;;;;;;6.45;3.45;;;25.90;99.90;;;;;;5383897;26;20440;-55
2024/04/18 04:04:07;;;;;;;6.95;3.67;;;25.80;99.90;;;;;;5384031;26;20000;-56
2024/04/18 04:06:33;;;;;;;7.28;4.07;;;25.80;99.90;;;;;;5383479;26;19996;-56
2024/04/18 04:08:58;;;;;;;6.05;3.38;;;25.80;99.90;;;;;;5381433;26;20075;-55
2024/04/18 04:11:25;;;;;;;7.30;4.15;;;25.80;99.90;;;;;;5383349;26;20007;-55
2024/04/18 04:13:51;;;;;;;6.38;3.75;;;25.80;99.90;;;;;;5383580;26;20449;-55
2024/04/18 04:16:19;;;;;;;5.60;3.38;;;25.80;99.90;;;;;;5383425;26;19996;-56
2024/04/18 04:18:50;;;;;;;7.38;3.65;;;25.80;99.90;;;;;;5383505;26;20000;-56
2024/04/18 04:21:17;;;;;;;6.13;3.42;;;25.80;99.90;;;;;;5383303;26;20390;-59
2024/04/18 04:23:43;;;;;;;5.75;3.67;;;25.80;99.90;;;;;;5383564;26;20647;-56
2024/04/18 04:26:09;;;;;;;6.75;3.60;;;25.70;99.90;;;;;;5383340;26;20023;-55
2024/04/18 04:28:34;;;;;;;7.60;3.08;;;25.80;99.90;;;;;;5383144;26;20340;-55
2024/04/18 04:31:00;;;;;;;7.15;4.22;;;25.80;99.90;;;;;;5383441;26;19996;-56
2024/04/18 04:33:32;;;;;;;5.60;3.45;;;25.70;99.90;;;;;;5383315;26;20332;-56
2024/04/18 04:35:58;;;;;;;7.07;3.00;;;25.70;99.90;;;;;;5383126;26;20462;-56
2024/04/18 04:38:24;;;;;;;5.28;2.88;;;25.70;99.90;;;;;;5381278;26;19996;-55
2024/04/18 04:40:50;;;;;;;6.22;3.10;;;25.70;99.90;;;;;;5383008;26;20011;-54
2024/04/18 04:43:16;;;;;;;5.93;2.85;;;25.70;99.90;;;;;;5381143;26;20000;-54
2024/04/18 04:45:42;;;;;;;4.88;3.15;;;25.70;99.90;;;;;;5382829;26;20444;-54
2024/04/18 04:48:08;;;;;;;5.85;3.13;;;25.70;99.90;;;;;;5383063;26;19996;-54
2024/04/18 04:50:37;;;;;;;5.35;2.85;;;25.70;99.90;;;;;;5382644;26;20395;-55
2024/04/18 04:53:03;;;;;;;5.72;3.38;;;25.60;99.90;;;;;;5382916;26;20436;-55
2024/04/18 04:55:29;;;;;;;7.00;3.58;;;25.70;99.90;;;;;;5382797;26;20015;-54
2024/04/18 04:57:54;;;;;;;6.57;4.07;;;25.70;99.90;;;;;;5382745;26;19996;-55
2024/04/18 05:00:20;;;;;;;7.07;4.78;;;25.60;99.90;;;;;;5380944;26;20014;-55
2024/04/18 05:02:46;;;;;;;6.65;4.32;;;25.60;99.90;;;;;;5349548;26;20012;-56
2024/04/18 05:05:12;;;;;;;5.07;4.20;;;25.60;99.90;;;;;;5359795;26;20040;-56
2024/04/18 05:07:37;;;;;;;8.10;5.40;;;25.60;99.90;;;;;;5357014;26;20445;-55
2024/04/18 05:10:04;;;;;;;8.57;4.63;;;25.60;99.90;;;;;;5382287;26;20407;-55
2024/04/18 05:12:30;;;;;;;10.20;4.85;;;25.60;99.90;;;;;;5380871;26;20000;-56
2024/04/18 05:14:55;;;;;;;11.40;5.03;;;25.60;99.90;;;;;;5378986;26;20065;-56
2024/04/18 05:17:21;;;;;;;7.93;4.63;;;25.50;99.90;;;;;;5379050;26;20007;-56
2024/04/18 05:19:47;;;;;;;6.07;3.47;;;25.60;99.90;;;;;;5377397;26;20002;-56
2024/04/18 05:22:13;;;;;;;5.75;3.97;;;25.50;99.90;;;;;;5379331;26;20004;-56
2024/04/18 05:24:38;;;;;;;6.97;3.78;;;25.60;99.90;;;;;;5379020;26;20010;-55
2024/04/18 05:27:04;;;;;;;6.53;3.92;;;25.50;99.90;;;;;;5378518;26;20003;-55
2024/04/18 05:32:14;;;;;;;6.70;3.53;;;25.50;99.90;;;;;;5382289;26;20015;-56
2024/04/18 05:34:40;;;;;;;5.63;3.90;;;25.50;99.90;;;;;;5382346;26;19997;-56
2024/04/18 05:37:06;;;;;;;4.82;3.08;;;25.50;99.90;;;;;;5382176;26;19996;-56
2024/04/18 05:39:32;;;;;;;8.43;3.58;;;25.50;99.90;;;;;;5382470;26;20000;-56
2024/04/18 05:41:57;;;;;;;5.95;3.50;;;25.50;99.90;;;;;;5382156;26;20548;-55
2024/04/18 05:44:24;;;;;;;6.13;3.33;;;25.50;99.90;;;;;;5382022;26;20011;-56
2024/04/18 05:46:50;;;;;;;6.07;3.25;;;25.40;99.90;;;;;;5382106;26;20473;-55
2024/04/18 05:49:16;;;;;;;6.75;3.45;;;25.40;99.90;;;;;;5382009;26;20000;-56
2024/04/18 05:51:42;;;;;;;5.97;3.78;;;25.40;99.90;;;;;;5382261;26;20453;-55
2024/04/18 05:54:08;;;;;;;8.15;3.30;;;25.40;99.90;;;;;;5380300;26;19997;-55
2024/04/18 05:56:34;;;;;;;5.72;3.53;;;25.40;99.90;;;;;;5380178;26;20070;-55
2024/04/18 05:59:00;;;;;;;8.27;3.60;;;25.40;99.90;;;;;;5381860;26;20008;-56
2024/04/18 06:01:26;;;;;;;5.55;3.22;;;25.40;99.90;;;;;;5381698;26;19996;-55
2024/04/18 06:03:51;;;;;;;6.38;3.55;;;25.40;99.90;;;;;;5382039;26;20011;-55
2024/04/18 06:06:17;;;;;;;6.50;3.53;;;25.40;99.90;;;;;;5381791;26;19996;-55
2024/04/18 06:08:43;;;;;;;5.30;3.40;;;25.40;99.90;;;;;;5382334;26;20011;-55
2024/04/18 06:11:09;;;;;;;5.10;3.20;;;25.40;99.90;;;;;;5381697;26;20437;-55
2024/04/18 06:13:38;;;;;;;6.70;3.47;;;25.40;99.90;;;;;;5381004;26;20160;-55
2024/04/18 06:16:04;;;;;;;4.78;2.97;;;25.40;99.90;;;;;;5380046;26;20008;-55
2024/04/18 06:18:30;;;;;;;6.20;3.40;;;25.40;99.90;;;;;;5381842;26;20001;-55
2024/04/18 06:21:00;;;;;;;6.00;3.35;;;25.40;99.90;;;;;;5381850;26;20011;-55
2024/04/18 06:23:26;;;;;;;4.93;3.35;;;25.40;99.90;;;;;;5381789;26;20000;-55
2024/04/18 06:25:52;;;;;;;4.32;3.15;;;25.40;99.90;;;;;;5381593;26;20000;-55
2024/04/18 06:28:18;;;;;;;6.65;3.42;;;25.40;99.90;;;;;;5381666;26;20088;-54
2024/04/18 06:30:43;;;;;;;5.05;3.10;;;25.40;99.90;;;;;;5381821;26;20087;-56
2024/04/18 06:33:09;;;;;;;5.38;3.00;;;25.40;99.90;;;;;;5381431;26;20007;-55
2024/04/18 06:35:35;;;;;;;6.60;3.20;;;25.40;99.90;;;;;;5381557;26;20007;-55
2024/04/18 06:38:02;;;;;;;5.93;3.35;;;25.40;99.90;;;;;;5381481;26;20000;-54
2024/04/18 06:40:27;;;;;;;6.75;3.00;;;25.40;99.90;;;;;;5381588;26;20000;-56
2024/04/18 06:42:55;;;;;;;5.57;3.28;;;25.40;99.90;;;;;;5381342;26;19996;-55
2024/04/18 06:45:21;;;;;;;6.35;3.05;;;25.40;99.90;;;;;;5381223;26;20007;-55
2024/04/18 06:47:48;;;;;;;7.30;2.77;;;25.40;99.90;;;;;;5381633;26;20046;-55
2024/04/18 06:50:16;;;;;;;5.47;2.87;;;25.40;99.90;;;;;;5381425;26;20073;-55
2024/04/18 06:52:42;;;;;;;6.13;2.58;;;25.40;99.90;;;;;;5381254;26;20000;-55
2024/04/18 06:55:08;;;;;;;6.65;2.58;;;25.40;99.90;;;;;;5379442;26;20000;-55
2024/04/18 06:57:34;;;;;;;3.92;2.42;;;25.40;99.90;;;;;;5380851;26;20004;-55
2024/04/18 06:59:59;;;;;;;3.80;2.65;;;25.40;99.90;;;;;;5381150;26;20434;-55
2024/04/18 07:02:25;;;;;;;3.78;2.35;;;25.40;99.90;;;;;;5380872;26;20010;-55
2024/04/18 07:04:51;;;;;;;6.13;2.88;;;25.40;99.90;;;;;;5379242;26;19996;-55
2024/04/18 07:07:17;;;;;;;5.20;2.70;;;25.40;99.90;;;;;;5381238;26;20073;-55
2024/04/18 07:09:43;;;;;;;5.25;2.83;;;25.40;99.90;;;;;;5380872;26;19996;-55
2024/04/18 07:12:08;;;;;;;5.03;2.75;;;25.40;99.90;;;;;;5381227;26;20000;-55
2024/04/18 07:14:34;;;;;;;4.43;2.33;;;25.40;99.90;;;;;;5380864;26;20000;-56
2024/04/18 07:17:00;;;;;;;8.43;2.88;;;25.40;99.90;;;;;;5380898;26;20000;-54
2024/04/18 07:19:26;;;;;;;4.93;2.50;;;25.40;99.90;;;;;;5379192;26;20012;-55
2024/04/18 07:21:52;;;;;;;7.50;2.95;;;25.40;99.90;;;;;;5381027;26;19996;-55
2024/04/18 07:24:18;;;;;;;3.95;2.67;;;25.40;99.90;;;;;;5379115;26;20077;-55
2024/04/18 07:26:44;;;;;;;4.93;3.05;;;25.40;99.90;;;;;;5379206;26;20429;-55
2024/04/18 07:29:09;;;;;;;6.57;3.00;;;25.40;99.90;;;;;;5380652;26;20000;-55
2024/04/18 07:31:35;;;;;;;6.75;3.05;;;25.40;99.90;;;;;;5380447;26;20000;-56
2024/04/18 07:34:01;;;;;;;4.85;2.70;;;25.40;99.90;;;;;;5380537;26;20000;-56
2024/04/18 07:36:27;;;;;;;5.72;2.75;;;25.40;99.90;;;;;;5380604;26;20011;-56
2024/04/18 07:38:53;;;;;;;4.70;2.80;;;25.30;99.90;;;;;;5380632;26;20011;-56
2024/04/18 07:41:19;;;;;;;4.03;2.47;;;25.40;99.90;;;;;;5380932;26;19996;-57
2024/04/18 07:43:45;;;;;;;5.57;2.90;;;25.40;99.90;;;;;;5380578;26;20039;-53
2024/04/18 07:46:12;;;;;;;5.63;3.03;;;25.30;99.90;;;;;;5380372;26;20455;-55
2024/04/18 07:48:39;;;;;;;4.03;2.13;;;25.40;99.90;;;;;;5380455;26;20000;-54
2024/04/18 07:51:05;;;;;;;7.50;2.83;;;25.40;99.90;;;;;;5380193;26;20000;-53
2024/04/18 07:53:31;;;;;;;5.20;3.00;;;25.30;99.90;;;;;;5380461;26;20000;-54
2024/04/18 07:55:57;;;;;;;5.18;2.60;;;25.40;99.90;;;;;;5379997;26;20464;-54
2024/04/18 07:58:23;;;;;;;3.20;2.35;;;25.30;99.90;;;;;;5380165;26;20000;-54
2024/04/18 08:00:52;;;;;;;3.95;2.53;;;25.30;99.90;;;;;;5380229;26;20138;-53
2024/04/18 08:03:18;;;;;;;5.72;2.90;;;25.30;99.90;;;;;;5380995;26;20008;-53
2024/04/18 08:05:48;;;;;;;4.05;2.38;;;25.30;99.90;;;;;;5380171;26;19996;-54
2024/04/18 08:08:14;;;;;;;3.65;2.70;;;25.40;99.90;;;;;;5380172;26;20008;-53
2024/04/18 08:10:40;;;;;;;6.85;2.90;;;25.40;99.90;;;;;;5378197;26;20037;-53
2024/04/18 08:13:06;;;;;;;4.75;3.00;;;25.40;99.90;;;;;;5379977;26;20007;-55
2024/04/18 08:15:38;;;;;;;4.03;2.80;;;25.40;99.90;;;;;;5380083;26;20000;-54
2024/04/18 08:18:04;;;;;;;4.03;2.42;;;25.40;99.90;;;;;;5380085;26;19996;-55
2024/04/18 08:20:29;;;;;;;4.82;2.95;;;25.40;99.90;;;;;;5353766;26;19997;-54
2024/04/18 08:22:55;;;;;;;5.85;2.95;;;25.40;99.90;;;;;;5357745;26;20008;-56
2024/04/18 08:25:21;;;;;;;4.97;2.80;;;25.40;99.90;;;;;;5379514;26;20011;-56
2024/04/18 08:27:47;;;;;;;7.18;3.03;;;25.40;99.90;;;;;;5379571;26;20011;-54
2024/04/18 08:30:13;;;;;;;6.97;2.97;;;25.40;99.90;;;;;;5379289;26;20321;-55
2024/04/18 08:32:39;;;;;;;5.10;2.88;;;25.40;99.90;;;;;;5379494;26;20051;-54
2024/04/18 08:35:05;;;;;;;5.93;2.92;;;25.40;99.90;;;;;;5378920;26;20011;-54
2024/04/18 08:37:30;;;;;;;6.05;2.72;;;25.40;99.90;;;;;;5381206;26;20015;-55
2024/04/18 08:39:56;;;;;;;7.60;3.05;;;25.40;99.90;;;;;;5356186;26;20016;-55
2024/04/18 08:42:25;;;;;;;6.75;3.13;;;25.40;99.90;;;;;;5378700;26;20424;-56
2024/04/18 08:44:55;;;;;;;6.85;2.97;;;25.40;99.90;;;;;;5380072;26;20000;-54
2024/04/18 08:47:26;;;;;;;5.68;2.92;;;25.40;99.90;;;;;;5379618;26;19992;-54
2024/04/18 08:49:55;;;;;;;6.32;3.40;;;25.40;99.90;;;;;;5379533;26;20006;-55
2024/04/18 08:52:21;;;;;;;6.63;3.25;;;25.40;99.90;;;;;;5379765;26;20006;-56
2024/04/18 08:54:47;;;;;;;7.90;3.33;;;25.40;99.90;;;;;;5379175;26;19996;-55
2024/04/18 08:57:21;;;;;;;6.78;3.08;;;25.40;99.90;;;;;;5381353;26;20000;-56
2024/04/18 09:00:00;;;;;;;6.68;3.22;;;25.40;99.90;;;;;;5382799;26;20000;-57
2024/04/18 09:02:30;;;;;;;7.78;3.42;;;25.40;99.90;;;;;;5382658;26;20010;-56
2024/04/18 09:04:58;;;;;;;6.47;3.05;;;25.50;99.90;;;;;;5383047;26;20000;-56
2024/04/18 09:07:24;;;;;;;6.38;3.72;;;25.40;99.90;;;;;;5383088;26;20010;-56
2024/04/18 09:09:53;;;;;;;4.13;2.78;;;25.40;99.90;;;;;;5382550;26;20397;-55
2024/04/18 09:12:19;;;;;;;8.50;3.22;;;25.50;99.90;;;;;;5382663;26;20000;-55
2024/04/18 09:14:44;;;;;;;5.10;3.15;;;25.50;99.90;;;;;;5382767;26;20073;-54
2024/04/18 09:17:14;;;;;;;5.97;2.95;;;25.50;99.90;;;;;;5382847;26;20007;-55
2024/04/18 09:19:40;;;;;;;7.20;3.53;;;25.50;99.90;;;;;;5382866;26;20000;-56
2024/04/18 09:22:06;;;;;;;6.57;2.97;;;25.50;99.90;;;;;;5382611;26;20011;-57
2024/04/18 09:24:32;;;;;;;8.02;3.58;;;25.50;99.90;;;;;;5382531;26;20028;-56
2024/04/18 09:26:59;;;;;;;5.25;3.00;;;25.50;99.90;;;;;;5382797;26;20007;-56
2024/04/18 09:29:24;;;;;;;7.82;3.22;;;25.50;99.90;;;;;;5382704;26;20078;-56
2024/04/18 09:31:54;;;;;;;6.95;3.13;;;25.50;99.90;;;;;;5382377;26;19996;-56
2024/04/18 09:34:20;;;;;;;8.95;3.28;;;25.50;99.90;;;;;;5382545;26;20000;-55
2024/04/18 09:36:46;;;;;;;8.00;2.92;;;25.50;99.90;;;;;;5382390;26;19996;-56
2024/04/18 09:39:27;;;;;;;6.38;3.50;;;25.50;99.90;;;;;;5382416;26;19996;-57
2024/04/18 09:42:00;;;;;;;5.75;2.90;;;25.50;99.90;;;;;;5382792;26;20008;-56
2024/04/18 09:44:30;;;;;;;4.70;3.38;;;25.50;99.90;;;;;;5382622;26;19996;-56
2024/04/18 09:46:58;;;;;;;7.28;3.40;;;25.50;99.90;;;;;;5382428;26;20011;-56
2024/04/18 09:49:25;;;;;;;9.60;2.70;;;25.60;99.90;;;;;;5381177;26;20007;-56
2024/04/18 09:51:52;;;;;;;7.68;3.65;;;25.50;99.90;;;;;;5382378;26;20413;-55
2024/04/18 09:54:19;;;;;;;11.48;3.40;;;25.60;99.90;;;;;;5382134;26;20089;-55
2024/04/18 09:56:47;;;;;;;11.00;3.53;;;25.60;99.90;;;;;;5382026;26;20008;-57
2024/04/18 09:59:15;;;;;;;7.15;3.92;;;25.60;99.90;;;;;;5382003;26;20000;-56
2024/04/18 10:01:42;;;;;;;8.38;3.65;;;25.60;99.90;;;;;;5381772;26;20010;-55
2024/04/18 10:04:09;;;;;;;8.57;3.58;;;25.60;99.90;;;;;;5381915;26;20007;-55
2024/04/18 10:06:38;;;;;;;12.05;4.10;;;25.60;99.90;;;;;;5382035;26;20007;-56
2024/04/18 10:09:07;;;;;;;8.93;3.75;;;25.60;99.90;;;;;;5381702;26;20000;-56
2024/04/18 10:11:33;;;;;;;11.00;4.05;;;25.60;99.90;;;;;;5382091;26;20135;-56
2024/04/18 10:14:03;;;;;;;5.67;3.70;;;25.60;99.90;;;;;;5381980;26;20340;-56
2024/04/18 10:16:29;;;;;;;5.75;3.40;;;25.60;99.90;;;;;;5382107;26;20469;-56
2024/04/18 10:18:55;;;;;;;7.90;3.33;;;25.60;99.90;;;;;;5382249;26;20084;-55
2024/04/18 10:21:21;;;;;;;7.28;3.85;;;25.60;99.90;;;;;;5381765;26;20438;-56
2024/04/18 10:23:52;;;;;;;9.25;3.83;;;25.70;99.90;;;;;;5381782;26;20000;-56
2024/04/18 10:26:19;;;;;;;11.77;4.32;;;25.70;99.90;;;;;;5381357;26;20077;-56
2024/04/18 10:28:45;;;;;;;;;;;25.70;99.90;;;;;;5382330;26;20000;-55
2024/04/18 10:31:12;;;;;;;8.10;3.63;;;25.70;99.90;;;;;;5381254;26;19995;-56
2024/04/18 10:33:41;;;;;;;5.32;2.75;;;25.70;99.90;;;;;;5381432;26;20460;-55
2024/04/18 10:36:13;;;;;;;10.13;3.50;;;25.70;99.90;;;;;;5381626;26;19996;-56
2024/04/18 10:38:48;;;;;;;5.32;3.28;;;25.70;99.90;;;;;;5381228;26;20455;-56
2024/04/18 10:41:16;;;;;;;6.55;3.53;;;25.70;99.90;;;;;;5381601;26;20008;-56
2024/04/18 10:43:43;;;;;;;8.80;3.42;;;25.70;99.90;;;;;;5381204;26;20436;-56
2024/04/18 10:46:13;;;;;;;7.43;3.15;;;25.70;99.90;;;;;;5381426;26;19996;-55
2024/04/18 10:48:39;;;;;;;9.25;3.58;;;25.80;99.90;;;;;;5381258;26;20359;-55
2024/04/18 10:51:06;;;;;;;13.15;3.60;;;25.70;99.90;;;;;;5381168;26;19996;-56
2024/04/18 10:53:38;;;;;;;9.45;4.03;;;25.80;99.90;;;;;;5381220;26;19997;-55
2024/04/18 10:56:04;;;;;;;6.80;3.97;;;25.70;99.90;;;;;;5381242;26;20007;-55
2024/04/18 10:58:30;;;;;;;8.57;4.40;;;25.80;99.90;;;;;;5381421;26;20357;-55
2024/04/18 11:01:02;;;;;;;7.68;3.00;;;25.80;99.90;;;;;;5380724;26;20007;-55
2024/04/18 11:03:28;;;;;;;7.15;3.70;;;25.80;99.90;;;;;;5379486;26;20028;-54
2024/04/18 11:06:00;;;;;;;6.60;3.37;;;25.80;99.90;;;;;;5380925;26;20008;-57
2024/04/18 11:08:26;;;;;;;7.38;3.83;;;25.80;99.90;;;;;;5379254;26;20000;-54
2024/04/18 11:10:52;;;;;;;7.75;3.60;;;25.80;99.90;;;;;;5381001;26;20004;-54
2024/04/18 11:13:19;;;;;;;9.23;3.92;;;25.80;99.90;;;;;;5380863;26;19997;-55
2024/04/18 11:15:46;;;;;;;7.85;3.75;;;25.90;99.90;;;;;;5380730;26;20346;-55
2024/04/18 11:18:12;;;;;;;4.63;3.42;;;25.90;99.90;;;;;;5380834;26;20028;-55
2024/04/18 11:20:38;;;;;;;7.95;4.60;;;25.90;99.90;;;;;;5380527;26;20000;-55
2024/04/18 11:23:05;;;;;;;10.50;4.55;;;25.90;99.90;;;;;;5380787;26;20000;-54
2024/04/18 11:25:31;;;;;;;9.80;4.50;;;25.90;99.90;;;;;;5380951;26;20411;-55
2024/04/18 11:27:58;;;;;;;11.27;3.95;;;25.90;99.90;;;;;;5380598;26;20522;-55
2024/04/18 11:30:25;;;;;;;8.68;4.70;;;25.90;99.90;;;;;;5380577;26;20010;-55
2024/04/18 11:32:58;;;;;;;7.63;4.75;;;25.90;99.90;;;;;;5380707;26;20391;-55
2024/04/18 11:35:25;;;;;;;9.05;4.97;;;25.90;99.90;;;;;;5380445;26;20000;-55
2024/04/18 11:37:51;;;;;;;9.35;4.18;;;25.90;99.90;;;;;;5380663;26;20011;-55
2024/04/18 11:40:17;;;;;;;10.93;4.72;;;26.00;99.90;;;;;;5380590;26;20341;-55
2024/04/18 11:42:44;;;;;;;10.05;4.38;;;26.00;99.90;;;;;;5378723;26;20000;-55
2024/04/18 11:45:10;;;;;;;10.95;4.78;;;26.00;99.90;;;;;;5380202;26;20365;-55
2024/04/18 11:47:37;;;;;;;7.82;4.32;;;26.00;99.90;;;;;;5380428;26;20028;-55
2024/04/18 11:50:09;;;;;;;13.23;4.90;;;26.00;99.90;;;;;;5380514;26;20020;-55
2024/04/18 11:52:35;;;;;;;10.35;4.53;;;26.00;99.90;;;;;;5380473;26;20032;-56
2024/04/18 11:55:00;;;;;;;12.55;4.93;;;26.00;99.90;;;;;;5380653;26;20452;-55
2024/04/18 11:57:26;;;;;;;7.07;4.25;;;26.00;99.90;;;;;;5376608;26;20321;-54
2024/04/18 11:59:52;;;;;;;6.95;4.18;;;26.00;99.90;;;;;;5360543;26;20001;-55
2024/04/18 12:02:18;;;;;;;10.07;4.32;;;26.10;99.90;;;;;;5361318;26;20453;-55
2024/04/18 12:04:44;;;;;;;8.05;4.43;;;26.10;99.90;;;;;;5379488;26;20008;-55
2024/04/18 12:07:09;;;;;;;5.53;4.00;;;26.10;99.90;;;;;;5379559;26;20015;-55
2024/04/18 12:09:42;;;;;;;6.82;4.10;;;26.10;99.90;;;;;;5380074;26;20019;-55
2024/04/18 12:12:08;;;;;;;8.80;4.15;;;26.10;99.90;;;;;;5379301;26;20347;-55
2024/04/18 12:14:34;;;;;;;8.15;4.18;;;26.10;99.90;;;;;;5380139;26;20007;-54
2024/04/18 12:17:00;;;;;;;6.63;3.90;;;26.10;99.90;;;;;;5379811;26;20012;-54
2024/04/18 12:19:26;;;;;;;8.85;3.88;;;26.10;99.90;;;;;;5379641;26;20428;-55
2024/04/18 12:21:51;;;;;;;9.63;4.15;;;26.20;99.90;;;;;;5380117;26;19996;-55
2024/04/18 12:24:17;;;;;;;7.15;4.10;;;26.10;99.90;;;;;;5379797;26;19996;-55
2024/04/18 12:26:45;;;;;;;7.65;3.95;;;26.20;99.90;;;;;;5379505;26;20011;-55
2024/04/18 12:29:11;;;;;;;;;;;26.20;99.90;;;;;;5381780;26;20330;-54
2024/04/18 12:31:36;;;;;;;9.88;4.20;;;26.20;99.90;;;;;;5383322;26;19932;-55
2024/04/18 12:34:02;;;;;;;10.90;4.45;;;26.20;99.90;;;;;;5383617;26;20440;-55
2024/04/18 12:36:28;;;;;;;7.97;4.50;;;26.20;99.90;;;;;;5383267;26;20002;-55
2024/04/18 12:38:54;;;;;;;8.93;4.22;;;26.20;99.90;;;;;;5383132;26;20419;-54
2024/04/18 12:41:19;;;;;;;7.97;4.78;;;26.20;99.90;;;;;;5382865;26;20027;-55
2024/04/18 12:43:45;;;;;;;8.65;4.50;;;26.20;99.90;;;;;;5382851;26;20440;-54
2024/04/18 12:46:11;;;;;;;7.38;4.28;;;26.30;99.90;;;;;;5383283;26;20004;-54
2024/04/18 12:48:37;;;;;;;6.20;3.92;;;26.30;99.90;;;;;;5383230;26;19993;-54